sensor_id;sensor_type;location;lat;lon;timestamp;pressure;altitude;pressure_sealevel;temperature;humidity
7075;BME280;3578;51.568;6.932;2023-04-26T00:01:32;50813.97;;;-144.14;99.26
7075;BME280;3578;51.568;6.932;2023-04-26T00:04:00;50731.88;;;-144.14;99.66
7075;BME280;3578;51.568;6.932;2023-04-26T00:06:28;50659.78;;;-144.14;99.85
7075;BME280;3578;51.568;6.932;2023-04-26T00:08:55;50679.78;;;-144.14;99.65
7075;BME280;3578;51.568;6.932;2023-04-26T00:11:22;50739.88;;;-144.14;99.53
7075;BME280;3578;51.568;6.932;2023-04-26T00:13:49;50695.81;;;-144.14;99.54
7075;BME280;3578;51.568;6.932;2023-04-26T00:16:16;50605.69;;;-144.14;99.89
7075;BME280;3578;51.568;6.932;2023-04-26T00:18:44;50593.69;;;-144.14;99.95
7075;BME280;3578;51.568;6.932;2023-04-26T00:21:11;50665.78;;;-144.14;99.60
7075;BME280;3578;51.568;6.932;2023-04-26T00:23:40;50613.72;;;-144.14;99.90
7075;BME280;3578;51.568;6.932;2023-04-26T00:26:07;50553.63;;;-144.14;100.00
7075;BME280;3578;51.568;6.932;2023-04-26T00:28:34;50539.63;;;-144.14;100.00
7075;BME280;3578;51.568;6.932;2023-04-26T00:31:01;50441.50;;;-144.14;100.00
7075;BME280;3578;51.568;6.932;2023-04-26T00:33:27;50399.44;;;-144.14;100.00
7075;BME280;3578;51.568;6.932;2023-04-26T00:35:55;50409.47;;;-144.14;100.00
7075;BME280;3578;51.568;6.932;2023-04-26T00:38:22;50411.47;;;-144.14;100.00
7075;BME280;3578;51.568;6.932;2023-04-26T00:40:50;50405.47;;;-144.14;100.00
7075;BME280;3578;51.568;6.932;2023-04-26T00:43:17;50417.47;;;-144.14;100.00
7075;BME280;3578;51.568;6.932;2023-04-26T00:45:44;50439.50;;;-144.14;100.00
7075;BME280;3578;51.568;6.932;2023-04-26T00:48:11;50403.44;;;-144.14;100.00
7075;BME280;3578;51.568;6.932;2023-04-26T00:50:38;50449.50;;;-144.14;100.00
7075;BME280;3578;51.568;6.932;2023-04-26T00:53:06;50471.53;;;-144.14;100.00
7075;BME280;3578;51.568;6.932;2023-04-26T00:55:34;50499.56;;;-144.14;100.00
7075;BME280;3578;51.568;6.932;2023-04-26T00:58:02;50537.63;;;-144.14;99.77
7075;BME280;3578;51.568;6.932;2023-04-26T01:00:29;50541.63;;;-144.14;99.72
7075;BME280;3578;51.568;6.932;2023-04-26T01:02:56;50473.53;;;-144.14;100.00
7075;BME280;3578;51.568;6.932;2023-04-26T01:05:23;50481.53;;;-144.14;100.00
7075;BME280;3578;51.568;6.932;2023-04-26T01:07:51;50459.53;;;-144.14;100.00
7075;BME280;3578;51.568;6.932;2023-04-26T01:10:18;50501.56;;;-144.14;100.00
7075;BME280;3578;51.568;6.932;2023-04-26T01:12:45;50477.53;;;-144.14;99.95
7075;BME280;3578;51.568;6.932;2023-04-26T01:15:13;50521.59;;;-144.14;100.00
7075;BME280;3578;51.568;6.932;2023-04-26T01:17:41;50503.56;;;-144.14;100.00
7075;BME280;3578;51.568;6.932;2023-04-26T01:20:13;50483.56;;;-144.14;100.00
7075;BME280;3578;51.568;6.932;2023-04-26T01:22:41;50513.59;;;-144.14;99.85
7075;BME280;3578;51.568;6.932;2023-04-26T01:25:11;50523.59;;;-144.14;99.80
7075;BME280;3578;51.568;6.932;2023-04-26T01:27:38;50509.59;;;-144.14;99.71
7075;BME280;3578;51.568;6.932;2023-04-26T01:30:08;50533.63;;;-144.14;99.87
7075;BME280;3578;51.568;6.932;2023-04-26T01:32:35;50521.59;;;-144.14;100.00
7075;BME280;3578;51.568;6.932;2023-04-26T01:35:03;50477.53;;;-144.14;100.00
7075;BME280;3578;51.568;6.932;2023-04-26T01:37:32;50481.53;;;-144.14;100.00
7075;BME280;3578;51.568;6.932;2023-04-26T01:40:00;50433.50;;;-144.14;100.00
7075;BME280;3578;51.568;6.932;2023-04-26T01:42:27;50441.50;;;-144.14;100.00
7075;BME280;3578;51.568;6.932;2023-04-26T01:44:54;50439.50;;;-144.14;100.00
7075;BME280;3578;51.568;6.932;2023-04-26T01:47:21;50421.47;;;-144.14;100.00
7075;BME280;3578;51.568;6.932;2023-04-26T01:49:48;50455.50;;;-144.14;100.00
7075;BME280;3578;51.568;6.932;2023-04-26T01:52:15;50487.56;;;-144.14;100.00
7075;BME280;3578;51.568;6.932;2023-04-26T01:54:42;50477.53;;;-144.14;100.00
7075;BME280;3578;51.568;6.932;2023-04-26T01:57:10;50443.50;;;-144.14;100.00
7075;BME280;3578;51.568;6.932;2023-04-26T01:59:37;50389.44;;;-144.14;100.00
7075;BME280;3578;51.568;6.932;2023-04-26T02:02:04;50375.41;;;-144.14;100.00
7075;BME280;3578;51.568;6.932;2023-04-26T02:04:31;50379.44;;;-144.14;100.00
7075;BME280;3578;51.568;6.932;2023-04-26T02:06:58;50295.31;;;-144.14;100.00
7075;BME280;3578;51.568;6.932;2023-04-26T02:09:25;50371.41;;;-144.14;100.00
7075;BME280;3578;51.568;6.932;2023-04-26T02:11:52;50411.47;;;-144.14;100.00
7075;BME280;3578;51.568;6.932;2023-04-26T02:14:20;50391.44;;;-144.14;100.00
7075;BME280;3578;51.568;6.932;2023-04-26T02:16:47;50419.47;;;-144.14;100.00
7075;BME280;3578;51.568;6.932;2023-04-26T02:19:14;50401.44;;;-144.14;100.00
7075;BME280;3578;51.568;6.932;2023-04-26T02:21:53;50451.50;;;-144.14;100.00
7075;BME280;3578;51.568;6.932;2023-04-26T02:24:21;50429.47;;;-144.14;100.00
7075;BME280;3578;51.568;6.932;2023-04-26T02:26:49;50365.41;;;-144.14;100.00
7075;BME280;3578;51.568;6.932;2023-04-26T02:29:16;50389.44;;;-144.14;100.00
7075;BME280;3578;51.568;6.932;2023-04-26T02:31:45;50371.41;;;-144.14;100.00
7075;BME280;3578;51.568;6.932;2023-04-26T02:34:13;50349.38;;;-144.14;100.00
7075;BME280;3578;51.568;6.932;2023-04-26T02:36:41;50369.41;;;-144.14;100.00
7075;BME280;3578;51.568;6.932;2023-04-26T02:39:08;50363.41;;;-144.14;100.00
7075;BME280;3578;51.568;6.932;2023-04-26T02:41:36;50241.25;;;-144.14;100.00
7075;BME280;3578;51.568;6.932;2023-04-26T02:44:04;49942.94;;;-144.14;100.00
7075;BME280;3578;51.568;6.932;2023-04-26T02:46:31;49772.75;;;-144.14;100.00
7075;BME280;3578;51.568;6.932;2023-04-26T02:48:59;49852.84;;;-144.14;100.00
7075;BME280;3578;51.568;6.932;2023-04-26T02:51:27;49952.94;;;-144.14;100.00
7075;BME280;3578;51.568;6.932;2023-04-26T02:53:54;50011.00;;;-144.14;100.00
7075;BME280;3578;51.568;6.932;2023-04-26T02:56:21;50049.03;;;-144.14;100.00
7075;BME280;3578;51.568;6.932;2023-04-26T02:58:48;49992.97;;;-144.14;100.00
7075;BME280;3578;51.568;6.932;2023-04-26T03:01:16;49976.97;;;-144.14;100.00
7075;BME280;3578;51.568;6.932;2023-04-26T03:03:43;49920.91;;;-144.14;100.00
7075;BME280;3578;51.568;6.932;2023-04-26T03:06:11;49890.88;;;-144.14;100.00
7075;BME280;3578;51.568;6.932;2023-04-26T03:08:38;49914.91;;;-144.14;100.00
7075;BME280;3578;51.568;6.932;2023-04-26T03:11:05;49918.91;;;-144.14;100.00
7075;BME280;3578;51.568;6.932;2023-04-26T03:13:32;49930.91;;;-144.14;100.00
7075;BME280;3578;51.568;6.932;2023-04-26T03:15:59;50015.00;;;-144.14;100.00
7075;BME280;3578;51.568;6.932;2023-04-26T03:18:26;49988.97;;;-144.14;100.00
7075;BME280;3578;51.568;6.932;2023-04-26T03:20:53;50009.00;;;-144.14;100.00
7075;BME280;3578;51.568;6.932;2023-04-26T03:23:21;49970.97;;;-144.14;100.00
7075;BME280;3578;51.568;6.932;2023-04-26T03:25:50;49966.97;;;-144.14;100.00
7075;BME280;3578;51.568;6.932;2023-04-26T03:28:17;49984.97;;;-144.14;100.00
7075;BME280;3578;51.568;6.932;2023-04-26T03:30:44;49892.88;;;-144.14;100.00
7075;BME280;3578;51.568;6.932;2023-04-26T03:33:11;49924.91;;;-144.14;100.00
7075;BME280;3578;51.568;6.932;2023-04-26T03:35:39;49932.91;;;-144.14;100.00
7075;BME280;3578;51.568;6.932;2023-04-26T03:38:06;49936.91;;;-144.14;100.00
7075;BME280;3578;51.568;6.932;2023-04-26T03:40:34;49868.84;;;-144.14;100.00
7075;BME280;3578;51.568;6.932;2023-04-26T03:43:01;49852.84;;;-144.14;100.00
7075;BME280;3578;51.568;6.932;2023-04-26T03:45:28;49848.84;;;-144.14;100.00
7075;BME280;3578;51.568;6.932;2023-04-26T03:47:55;49874.84;;;-144.14;100.00
7075;BME280;3578;51.568;6.932;2023-04-26T03:50:22;49872.84;;;-144.14;100.00
7075;BME280;3578;51.568;6.932;2023-04-26T03:52:49;49856.84;;;-144.14;100.00
7075;BME280;3578;51.568;6.932;2023-04-26T03:55:17;49866.84;;;-144.14;100.00
7075;BME280;3578;51.568;6.932;2023-04-26T03:57:45;49876.84;;;-144.14;100.00
7075;BME280;3578;51.568;6.932;2023-04-26T04:00:13;49890.88;;;-144.14;100.00
7075;BME280;3578;51.568;6.932;2023-04-26T04:02:41;49900.88;;;-144.14;100.00
7075;BME280;3578;51.568;6.932;2023-04-26T04:05:08;49786.78;;;-144.14;100.00
7075;BME280;3578;51.568;6.932;2023-04-26T04:07:35;49680.66;;;-144.14;100.00
7075;BME280;3578;51.568;6.932;2023-04-26T04:10:03;49790.78;;;-144.14;100.00
7075;BME280;3578;51.568;6.932;2023-04-26T04:12:30;49712.69;;;-144.14;100.00
7075;BME280;3578;51.568;6.932;2023-04-26T04:14:58;49708.69;;;-144.14;100.00
7075;BME280;3578;51.568;6.932;2023-04-26T04:17:25;49760.75;;;-144.14;100.00
7075;BME280;3578;51.568;6.932;2023-04-26T04:19:52;49714.69;;;-144.14;100.00
7075;BME280;3578;51.568;6.932;2023-04-26T04:22:19;49680.66;;;-144.14;100.00
7075;BME280;3578;51.568;6.932;2023-04-26T04:24:46;49688.66;;;-144.14;100.00
7075;BME280;3578;51.568;6.932;2023-04-26T04:27:13;49660.63;;;-144.14;100.00
7075;BME280;3578;51.568;6.932;2023-04-26T04:29:40;49658.63;;;-144.14;100.00
7075;BME280;3578;51.568;6.932;2023-04-26T04:32:09;49704.69;;;-144.14;100.00
7075;BME280;3578;51.568;6.932;2023-04-26T04:34:36;49612.59;;;-144.14;100.00
7075;BME280;3578;51.568;6.932;2023-04-26T04:37:04;49554.53;;;-144.14;100.00
7075;BME280;3578;51.568;6.932;2023-04-26T04:39:30;49520.50;;;-144.14;100.00
7075;BME280;3578;51.568;6.932;2023-04-26T04:41:57;49470.47;;;-144.14;100.00
7075;BME280;3578;51.568;6.932;2023-04-26T04:44:25;49162.19;;;-144.14;100.00
7075;BME280;3578;51.568;6.932;2023-04-26T04:46:52;48970.03;;;-144.14;100.00
7075;BME280;3578;51.568;6.932;2023-04-26T04:49:20;49084.13;;;-144.14;100.00
7075;BME280;3578;51.568;6.932;2023-04-26T04:51:49;49172.19;;;-144.14;100.00
7075;BME280;3578;51.568;6.932;2023-04-26T04:54:17;49172.19;;;-144.14;100.00
7075;BME280;3578;51.568;6.932;2023-04-26T04:56:44;49076.13;;;-144.14;100.00
7075;BME280;3578;51.568;6.932;2023-04-26T04:59:11;49076.13;;;-144.14;100.00
7075;BME280;3578;51.568;6.932;2023-04-26T05:01:38;49180.19;;;-144.14;100.00
7075;BME280;3578;51.568;6.932;2023-04-26T05:04:06;49322.31;;;-144.14;100.00
7075;BME280;3578;51.568;6.932;2023-04-26T05:06:34;49372.38;;;-144.14;100.00
7075;BME280;3578;51.568;6.932;2023-04-26T05:09:02;49490.47;;;-144.14;100.00
7075;BME280;3578;51.568;6.932;2023-04-26T05:11:30;49626.59;;;-144.14;100.00
7075;BME280;3578;51.568;6.932;2023-04-26T05:13:58;49610.59;;;-144.14;100.00
7075;BME280;3578;51.568;6.932;2023-04-26T05:16:25;49648.63;;;-144.14;100.00
7075;BME280;3578;51.568;6.932;2023-04-26T05:18:52;49642.63;;;-144.14;100.00
7075;BME280;3578;51.568;6.932;2023-04-26T05:21:20;49648.63;;;-144.14;100.00
7075;BME280;3578;51.568;6.932;2023-04-26T05:23:48;49660.63;;;-144.14;100.00
7075;BME280;3578;51.568;6.932;2023-04-26T05:26:16;49648.63;;;-144.14;100.00
7075;BME280;3578;51.568;6.932;2023-04-26T05:28:43;49668.66;;;-144.14;100.00
7075;BME280;3578;51.568;6.932;2023-04-26T05:31:11;49710.69;;;-144.14;100.00
7075;BME280;3578;51.568;6.932;2023-04-26T05:33:38;49842.81;;;-144.14;100.00
7075;BME280;3578;51.568;6.932;2023-04-26T05:36:07;49970.97;;;-144.14;100.00
7075;BME280;3578;51.568;6.932;2023-04-26T05:38:34;50269.28;;;-144.14;100.00
7075;BME280;3578;51.568;6.932;2023-04-26T05:41:04;50423.47;;;-144.14;99.20
7075;BME280;3578;51.568;6.932;2023-04-26T05:43:31;50439.50;;;-144.14;99.29
7075;BME280;3578;51.568;6.932;2023-04-26T05:45:58;50555.63;;;-144.14;98.52
7075;BME280;3578;51.568;6.932;2023-04-26T05:48:25;50605.69;;;-144.14;98.26
7075;BME280;3578;51.568;6.932;2023-04-26T05:50:52;50585.69;;;-144.14;98.55
7075;BME280;3578;51.568;6.932;2023-04-26T05:53:19;50573.66;;;-144.14;98.94
7075;BME280;3578;51.568;6.932;2023-04-26T05:55:46;50529.59;;;-144.14;98.97
7075;BME280;3578;51.568;6.932;2023-04-26T05:58:15;50583.69;;;-144.14;98.83
7075;BME280;3578;51.568;6.932;2023-04-26T06:00:42;50611.72;;;-144.14;98.45
7075;BME280;3578;51.568;6.932;2023-04-26T06:03:09;50591.69;;;-144.14;98.47
7075;BME280;3578;51.568;6.932;2023-04-26T06:05:37;50623.72;;;-144.14;98.58
7075;BME280;3578;51.568;6.932;2023-04-26T06:08:04;50715.84;;;-144.14;97.66
7075;BME280;3578;51.568;6.932;2023-04-26T06:10:31;50771.91;;;-144.14;97.75
7075;BME280;3578;51.568;6.932;2023-04-26T06:12:58;50910.09;;;-144.14;95.59
7075;BME280;3578;51.568;6.932;2023-04-26T06:15:27;51258.59;;;-144.14;91.90
7075;BME280;3578;51.568;6.932;2023-04-26T06:17:54;51290.63;;;-144.14;92.51
7075;BME280;3578;51.568;6.932;2023-04-26T06:20:21;51354.72;;;-144.14;91.87
7075;BME280;3578;51.568;6.932;2023-04-26T06:22:48;51336.69;;;-144.14;92.11
7075;BME280;3578;51.568;6.932;2023-04-26T06:25:15;51326.69;;;-144.14;93.11
7075;BME280;3578;51.568;6.932;2023-04-26T06:27:43;51394.78;;;-144.14;91.68
7075;BME280;3578;51.568;6.932;2023-04-26T06:30:10;51480.91;;;-144.14;90.01
7075;BME280;3578;51.568;6.932;2023-04-26T06:32:40;51611.13;;;-144.14;87.65
7075;BME280;3578;51.568;6.932;2023-04-26T06:35:08;51739.31;;;-144.14;85.94
7075;BME280;3578;51.568;6.932;2023-04-26T06:37:36;51913.59;;;-144.14;84.38
7075;BME280;3578;51.568;6.932;2023-04-26T06:40:05;52067.88;;;-144.14;83.36
7075;BME280;3578;51.568;6.932;2023-04-26T06:42:32;52686.97;;;-144.14;74.63
7075;BME280;3578;51.568;6.932;2023-04-26T06:44:59;53484.56;;;-144.14;58.62
7075;BME280;3578;51.568;6.932;2023-04-26T06:47:27;53905.47;;;-144.14;51.67
7075;BME280;3578;51.568;6.932;2023-04-26T06:49:55;54248.25;;;-144.14;45.29
7075;BME280;3578;51.568;6.932;2023-04-26T06:52:22;54178.09;;;-144.14;45.55
7075;BME280;3578;51.568;6.932;2023-04-26T06:54:49;54152.03;;;-144.14;48.39
7075;BME280;3578;51.568;6.932;2023-04-26T06:57:16;54248.25;;;-144.14;46.04
7075;BME280;3578;51.568;6.932;2023-04-26T06:59:43;54270.31;;;-144.14;45.37
7075;BME280;3578;51.568;6.932;2023-04-26T07:02:10;54396.59;;;-144.14;45.85
7075;BME280;3578;51.568;6.932;2023-04-26T07:04:37;54366.53;;;-144.14;44.79
7075;BME280;3578;51.568;6.932;2023-04-26T07:07:06;54406.63;;;-144.14;44.47
7075;BME280;3578;51.568;6.932;2023-04-26T07:09:33;54472.78;;;-144.14;40.97
7075;BME280;3578;51.568;6.932;2023-04-26T07:12:01;54494.84;;;-144.14;41.72
7075;BME280;3578;51.568;6.932;2023-04-26T07:14:28;54905.84;;;-144.14;39.39
7075;BME280;3578;51.568;6.932;2023-04-26T07:16:55;54951.97;;;-144.14;40.36
7075;BME280;3578;51.568;6.932;2023-04-26T07:19:22;54825.66;;;-144.14;39.62
7075;BME280;3578;51.568;6.932;2023-04-26T07:21:49;54982.06;;;-144.14;38.67
7075;BME280;3578;51.568;6.932;2023-04-26T07:24:18;55294.88;;;-144.14;37.57
7075;BME280;3578;51.568;6.932;2023-04-26T07:26:44;55555.56;;;-144.14;37.31
7075;BME280;3578;51.568;6.932;2023-04-26T07:29:11;55792.22;;;-144.14;35.02
7075;BME280;3578;51.568;6.932;2023-04-26T07:31:38;55391.13;;;-144.14;34.33
7075;BME280;3578;51.568;6.932;2023-04-26T07:34:06;55379.09;;;-144.14;35.78
7075;BME280;3578;51.568;6.932;2023-04-26T07:36:32;55545.53;;;-144.14;35.92
7075;BME280;3578;51.568;6.932;2023-04-26T07:38:59;55826.31;;;-144.14;35.12
7075;BME280;3578;51.568;6.932;2023-04-26T07:41:28;55894.50;;;-144.14;33.57
7075;BME280;3578;51.568;6.932;2023-04-26T07:43:55;55854.38;;;-144.14;32.21
7075;BME280;3578;51.568;6.932;2023-04-26T07:46:22;55232.69;;;-144.14;34.15
7075;BME280;3578;51.568;6.932;2023-04-26T07:48:49;55022.16;;;-144.14;35.85
7075;BME280;3578;51.568;6.932;2023-04-26T07:51:16;54877.78;;;-144.14;36.97
7075;BME280;3578;51.568;6.932;2023-04-26T07:53:43;54643.19;;;-144.14;38.27
7075;BME280;3578;51.568;6.932;2023-04-26T07:56:10;54474.78;;;-144.14;39.27
7075;BME280;3578;51.568;6.932;2023-04-26T07:58:38;54312.41;;;-144.14;40.14
7075;BME280;3578;51.568;6.932;2023-04-26T08:01:05;54232.22;;;-144.14;43.11
7075;BME280;3578;51.568;6.932;2023-04-26T08:03:33;54188.13;;;-144.14;45.82
7075;BME280;3578;51.568;6.932;2023-04-26T08:06:00;54152.03;;;-144.14;48.30
7075;BME280;3578;51.568;6.932;2023-04-26T08:08:28;54095.91;;;-144.14;47.89
7075;BME280;3578;51.568;6.932;2023-04-26T08:10:56;54069.84;;;-144.14;53.45
7075;BME280;3578;51.568;6.932;2023-04-26T08:13:23;54013.72;;;-144.14;57.16
7075;BME280;3578;51.568;6.932;2023-04-26T08:15:52;53989.66;;;-144.14;54.82
7075;BME280;3578;51.568;6.932;2023-04-26T08:18:19;53977.63;;;-144.14;50.68
7075;BME280;3578;51.568;6.932;2023-04-26T08:20:46;53965.59;;;-144.14;53.73
7075;BME280;3578;51.568;6.932;2023-04-26T08:23:13;53947.56;;;-144.14;51.43
7075;BME280;3578;51.568;6.932;2023-04-26T08:25:40;53905.47;;;-144.14;55.53
7075;BME280;3578;51.568;6.932;2023-04-26T08:28:06;53913.50;;;-144.14;54.34
7075;BME280;3578;51.568;6.932;2023-04-26T08:30:33;53965.59;;;-144.14;54.16
7075;BME280;3578;51.568;6.932;2023-04-26T08:33:02;53987.66;;;-144.14;49.53
7075;BME280;3578;51.568;6.932;2023-04-26T08:35:29;54001.69;;;-144.14;48.97
7075;BME280;3578;51.568;6.932;2023-04-26T08:37:56;54071.84;;;-144.14;46.00
7075;BME280;3578;51.568;6.932;2023-04-26T08:40:24;54111.94;;;-144.14;46.93
7075;BME280;3578;51.568;6.932;2023-04-26T08:42:51;54234.22;;;-144.14;44.59
7075;BME280;3578;51.568;6.932;2023-04-26T08:45:19;54488.81;;;-144.14;43.90
7075;BME280;3578;51.568;6.932;2023-04-26T08:47:48;54753.47;;;-144.14;39.89
7075;BME280;3578;51.568;6.932;2023-04-26T08:50:19;54747.47;;;-144.14;36.83
7075;BME280;3578;51.568;6.932;2023-04-26T08:52:48;54611.13;;;-144.14;37.84
7075;BME280;3578;51.568;6.932;2023-04-26T08:55:17;54440.72;;;-144.14;41.46
7075;BME280;3578;51.568;6.932;2023-04-26T08:57:46;54348.50;;;-144.14;41.96
7075;BME280;3578;51.568;6.932;2023-04-26T09:00:14;54262.28;;;-144.14;41.58
7075;BME280;3578;51.568;6.932;2023-04-26T09:02:47;54188.13;;;-144.14;41.49
7075;BME280;3578;51.568;6.932;2023-04-26T09:05:15;54170.06;;;-144.14;42.26
7075;BME280;3578;51.568;6.932;2023-04-26T09:07:44;54160.06;;;-144.14;42.33
7075;BME280;3578;51.568;6.932;2023-04-26T09:10:13;54180.09;;;-144.14;43.21
7075;BME280;3578;51.568;6.932;2023-04-26T09:12:43;54226.22;;;-144.14;42.41
7075;BME280;3578;51.568;6.932;2023-04-26T09:15:12;54272.31;;;-144.14;43.63
7075;BME280;3578;51.568;6.932;2023-04-26T09:17:40;54316.41;;;-144.14;39.38
7075;BME280;3578;51.568;6.932;2023-04-26T09:20:24;54234.22;;;-144.14;41.41
7075;BME280;3578;51.568;6.932;2023-04-26T09:22:53;54206.16;;;-144.14;40.58
7075;BME280;3578;51.568;6.932;2023-04-26T09:25:30;54113.94;;;-144.14;42.24
7075;BME280;3578;51.568;6.932;2023-04-26T09:27:58;54152.03;;;-144.14;41.08
7075;BME280;3578;51.568;6.932;2023-04-26T09:30:27;54103.91;;;-144.14;41.32
7075;BME280;3578;51.568;6.932;2023-04-26T09:32:56;54055.81;;;-144.14;42.41
7075;BME280;3578;51.568;6.932;2023-04-26T09:35:30;54031.75;;;-144.14;43.57
7075;BME280;3578;51.568;6.932;2023-04-26T09:37:59;54083.88;;;-144.14;43.66
7075;BME280;3578;51.568;6.932;2023-04-26T09:40:30;54055.81;;;-144.14;43.39
7075;BME280;3578;51.568;6.932;2023-04-26T09:42:59;54111.94;;;-144.14;42.92
7075;BME280;3578;51.568;6.932;2023-04-26T09:45:28;54079.88;;;-144.14;41.52
7075;BME280;3578;51.568;6.932;2023-04-26T09:48:06;54148.03;;;-144.14;41.03
7075;BME280;3578;51.568;6.932;2023-04-26T09:50:39;54156.03;;;-144.14;41.09
7075;BME280;3578;51.568;6.932;2023-04-26T09:53:06;54206.16;;;-144.14;40.17
7075;BME280;3578;51.568;6.932;2023-04-26T09:55:33;54216.19;;;-144.14;41.61
7075;BME280;3578;51.568;6.932;2023-04-26T09:58:08;54300.38;;;-144.14;41.67
7075;BME280;3578;51.568;6.932;2023-04-26T10:00:37;54338.47;;;-144.14;41.90
7075;BME280;3578;51.568;6.932;2023-04-26T10:03:07;54274.31;;;-144.14;40.28
7075;BME280;3578;51.568;6.932;2023-04-26T10:05:36;54250.25;;;-144.14;41.42
7075;BME280;3578;51.568;6.932;2023-04-26T10:08:05;54188.13;;;-144.14;39.96
7075;BME280;3578;51.568;6.932;2023-04-26T10:10:33;54176.09;;;-144.14;40.61
7075;BME280;3578;51.568;6.932;2023-04-26T10:13:00;54115.94;;;-144.14;40.72
7075;BME280;3578;51.568;6.932;2023-04-26T10:15:28;54083.88;;;-144.14;40.75
7075;BME280;3578;51.568;6.932;2023-04-26T10:17:55;54107.94;;;-144.14;43.02
7075;BME280;3578;51.568;6.932;2023-04-26T10:20:25;54063.84;;;-144.14;43.22
7075;BME280;3578;51.568;6.932;2023-04-26T10:22:56;54113.94;;;-144.14;43.89
7075;BME280;3578;51.568;6.932;2023-04-26T10:25:36;54095.91;;;-144.14;43.16
7075;BME280;3578;51.568;6.932;2023-04-26T10:28:03;54115.94;;;-144.14;43.11
7075;BME280;3578;51.568;6.932;2023-04-26T10:30:30;54111.94;;;-144.14;43.81
7075;BME280;3578;51.568;6.932;2023-04-26T10:33:15;54103.91;;;-144.14;41.92
7075;BME280;3578;51.568;6.932;2023-04-26T10:36:07;54103.91;;;-144.14;42.29
7075;BME280;3578;51.568;6.932;2023-04-26T10:38:37;54144.00;;;-144.14;41.69
7075;BME280;3578;51.568;6.932;2023-04-26T10:41:33;54168.06;;;-144.14;43.57
7075;BME280;3578;51.568;6.932;2023-04-26T10:44:37;54208.16;;;-144.14;40.61
7075;BME280;3578;51.568;6.932;2023-04-26T10:47:06;54206.16;;;-144.14;38.74
7075;BME280;3578;51.568;6.932;2023-04-26T10:49:44;54248.25;;;-144.14;39.77
7075;BME280;3578;51.568;6.932;2023-04-26T10:52:15;54260.28;;;-144.14;39.36
7075;BME280;3578;51.568;6.932;2023-04-26T10:54:57;54268.31;;;-144.14;41.09
7075;BME280;3578;51.568;6.932;2023-04-26T10:57:50;54256.28;;;-144.14;39.98
7075;BME280;3578;51.568;6.932;2023-04-26T11:00:28;54236.22;;;-144.14;42.39
7075;BME280;3578;51.568;6.932;2023-04-26T11:03:06;54184.09;;;-144.14;39.17
7075;BME280;3578;51.568;6.932;2023-04-26T11:05:41;54230.22;;;-144.14;40.38
7075;BME280;3578;51.568;6.932;2023-04-26T11:08:18;54212.19;;;-144.14;39.72
7075;BME280;3578;51.568;6.932;2023-04-26T11:10:50;54204.16;;;-144.14;42.14
7075;BME280;3578;51.568;6.932;2023-04-26T11:13:19;54198.13;;;-144.14;40.06
7075;BME280;3578;51.568;6.932;2023-04-26T11:15:46;54206.16;;;-144.14;41.16
7075;BME280;3578;51.568;6.932;2023-04-26T11:18:18;54210.16;;;-144.14;40.03
7075;BME280;3578;51.568;6.932;2023-04-26T11:20:46;54216.19;;;-144.14;40.15
7075;BME280;3578;51.568;6.932;2023-04-26T11:23:13;54248.25;;;-144.14;41.55
7075;BME280;3578;51.568;6.932;2023-04-26T11:25:40;54260.28;;;-144.14;41.09
7075;BME280;3578;51.568;6.932;2023-04-26T11:28:07;54280.34;;;-144.14;39.12
7075;BME280;3578;51.568;6.932;2023-04-26T11:30:36;54278.31;;;-144.14;37.48
7075;BME280;3578;51.568;6.932;2023-04-26T11:33:03;54246.25;;;-144.14;38.10
7075;BME280;3578;51.568;6.932;2023-04-26T11:35:33;54270.31;;;-144.14;39.89
7075;BME280;3578;51.568;6.932;2023-04-26T11:38:03;54296.38;;;-144.14;38.87
7075;BME280;3578;51.568;6.932;2023-04-26T11:40:32;54306.41;;;-144.14;39.59
7075;BME280;3578;51.568;6.932;2023-04-26T11:43:01;54328.44;;;-144.14;38.52
7075;BME280;3578;51.568;6.932;2023-04-26T11:45:31;54360.53;;;-144.14;38.30
7075;BME280;3578;51.568;6.932;2023-04-26T11:48:01;54388.59;;;-144.14;37.11
7075;BME280;3578;51.568;6.932;2023-04-26T11:50:30;54372.56;;;-144.14;38.46
7075;BME280;3578;51.568;6.932;2023-04-26T11:53:00;54388.59;;;-144.14;38.45
7075;BME280;3578;51.568;6.932;2023-04-26T11:55:31;54456.75;;;-144.14;38.56
7075;BME280;3578;51.568;6.932;2023-04-26T11:57:59;54408.63;;;-144.14;37.99
7075;BME280;3578;51.568;6.932;2023-04-26T12:00:26;54416.66;;;-144.14;37.28
7075;BME280;3578;51.568;6.932;2023-04-26T12:02:53;54446.72;;;-144.14;36.38
7075;BME280;3578;51.568;6.932;2023-04-26T12:05:25;54446.72;;;-144.14;37.50
7075;BME280;3578;51.568;6.932;2023-04-26T12:07:53;54476.81;;;-144.14;36.08
7075;BME280;3578;51.568;6.932;2023-04-26T12:10:24;54462.75;;;-144.14;37.25
7075;BME280;3578;51.568;6.932;2023-04-26T12:12:54;54444.72;;;-144.14;37.15
7075;BME280;3578;51.568;6.932;2023-04-26T12:15:23;54424.69;;;-144.14;36.65
7075;BME280;3578;51.568;6.932;2023-04-26T12:17:52;54368.53;;;-144.14;36.31
7075;BME280;3578;51.568;6.932;2023-04-26T12:20:30;54320.44;;;-144.14;37.40
7075;BME280;3578;51.568;6.932;2023-04-26T12:23:03;54292.38;;;-144.14;37.14
7075;BME280;3578;51.568;6.932;2023-04-26T12:25:32;54294.38;;;-144.14;37.20
7075;BME280;3578;51.568;6.932;2023-04-26T12:27:59;54268.31;;;-144.14;38.57
7075;BME280;3578;51.568;6.932;2023-04-26T12:30:28;54288.34;;;-144.14;37.54
7075;BME280;3578;51.568;6.932;2023-04-26T12:32:55;54336.47;;;-144.14;35.06
7075;BME280;3578;51.568;6.932;2023-04-26T12:35:23;54384.56;;;-144.14;37.88
7075;BME280;3578;51.568;6.932;2023-04-26T12:37:52;54470.78;;;-144.14;36.79
7075;BME280;3578;51.568;6.932;2023-04-26T12:40:22;54488.81;;;-144.14;36.70
7075;BME280;3578;51.568;6.932;2023-04-26T12:42:49;54512.88;;;-144.14;34.54
7075;BME280;3578;51.568;6.932;2023-04-26T12:45:17;54500.84;;;-144.14;33.92
7075;BME280;3578;51.568;6.932;2023-04-26T12:47:45;54571.03;;;-144.14;34.22
7075;BME280;3578;51.568;6.932;2023-04-26T12:50:13;54605.09;;;-144.14;35.12
7075;BME280;3578;51.568;6.932;2023-04-26T12:52:42;54617.13;;;-144.14;33.86
7075;BME280;3578;51.568;6.932;2023-04-26T12:55:12;54673.28;;;-144.14;35.71
7075;BME280;3578;51.568;6.932;2023-04-26T12:57:41;54573.03;;;-144.14;33.94
7075;BME280;3578;51.568;6.932;2023-04-26T13:00:11;54516.91;;;-144.14;34.06
7075;BME280;3578;51.568;6.932;2023-04-26T13:02:38;54450.75;;;-144.14;36.48